sensor_id;sensor_type;location;lat;lon;timestamp;temperature;humidity
8715;DHT22;4394;51.208;8.904;2022-12-29T00:01:27;8.40;99.90
8715;DHT22;4394;51.208;8.904;2022-12-29T00:04:15;8.40;99.90
8715;DHT22;4394;51.208;8.904;2022-12-29T00:07:03;8.40;99.90
8715;DHT22;4394;51.208;8.904;2022-12-29T00:09:51;8.40;99.90
8715;DHT22;4394;51.208;8.904;2022-12-29T00:12:39;8.50;99.90
8715;DHT22;4394;51.208;8.904;2022-12-29T00:15:45;8.50;99.90
8715;DHT22;4394;51.208;8.904;2022-12-29T00:18:34;8.50;99.90
8715;DHT22;4394;51.208;8.904;2022-12-29T00:21:22;8.50;99.90
8715;DHT22;4394;51.208;8.904;2022-12-29T00:24:28;8.50;99.90
8715;DHT22;4394;51.208;8.904;2022-12-29T00:27:33;8.50;99.90
8715;DHT22;4394;51.208;8.904;2022-12-29T00:30:40;8.50;99.90
8715;DHT22;4394;51.208;8.904;2022-12-29T00:33:50;8.60;99.90
8715;DHT22;4394;51.208;8.904;2022-12-29T00:36:56;8.60;99.90
8715;DHT22;4394;51.208;8.904;2022-12-29T00:39:44;8.60;99.90
8715;DHT22;4394;51.208;8.904;2022-12-29T00:42:49;8.60;99.90
8715;DHT22;4394;51.208;8.904;2022-12-29T00:45:55;8.60;99.90
8715;DHT22;4394;51.208;8.904;2022-12-29T00:48:43;8.60;99.90
8715;DHT22;4394;51.208;8.904;2022-12-29T00:51:50;8.70;99.90
8715;DHT22;4394;51.208;8.904;2022-12-29T00:54:39;8.60;99.90
8715;DHT22;4394;51.208;8.904;2022-12-29T00:57:27;8.70;99.90
8715;DHT22;4394;51.208;8.904;2022-12-29T01:00:15;8.70;99.90
8715;DHT22;4394;51.208;8.904;2022-12-29T01:03:03;8.70;99.90
8715;DHT22;4394;51.208;8.904;2022-12-29T01:05:51;8.70;99.90
8715;DHT22;4394;51.208;8.904;2022-12-29T01:08:40;8.70;99.90
8715;DHT22;4394;51.208;8.904;2022-12-29T01:11:29;8.80;99.90
8715;DHT22;4394;51.208;8.904;2022-12-29T01:14:16;8.80;99.90
8715;DHT22;4394;51.208;8.904;2022-12-29T01:17:04;8.80;99.90
8715;DHT22;4394;51.208;8.904;2022-12-29T01:19:52;8.80;99.90
8715;DHT22;4394;51.208;8.904;2022-12-29T01:22:40;8.80;99.90
8715;DHT22;4394;51.208;8.904;2022-12-29T01:25:32;8.80;99.90
8715;DHT22;4394;51.208;8.904;2022-12-29T01:28:19;8.80;99.90
8715;DHT22;4394;51.208;8.904;2022-12-29T01:31:12;8.90;99.90
8715;DHT22;4394;51.208;8.904;2022-12-29T01:34:00;8.90;99.90
8715;DHT22;4394;51.208;8.904;2022-12-29T01:36:48;8.80;99.90
8715;DHT22;4394;51.208;8.904;2022-12-29T01:39:36;8.90;99.90
8715;DHT22;4394;51.208;8.904;2022-12-29T01:42:25;8.90;99.90
8715;DHT22;4394;51.208;8.904;2022-12-29T01:45:13;8.90;99.90
8715;DHT22;4394;51.208;8.904;2022-12-29T01:48:03;8.90;99.90
8715;DHT22;4394;51.208;8.904;2022-12-29T01:50:53;8.90;99.90
8715;DHT22;4394;51.208;8.904;2022-12-29T01:53:41;8.90;99.90
8715;DHT22;4394;51.208;8.904;2022-12-29T01:56:29;9.00;99.90
8715;DHT22;4394;51.208;8.904;2022-12-29T01:59:20;9.00;99.90
8715;DHT22;4394;51.208;8.904;2022-12-29T02:02:09;9.00;99.90
8715;DHT22;4394;51.208;8.904;2022-12-29T02:04:57;9.00;99.90
8715;DHT22;4394;51.208;8.904;2022-12-29T02:07:50;9.00;99.90
8715;DHT22;4394;51.208;8.904;2022-12-29T02:10:39;9.10;99.90
8715;DHT22;4394;51.208;8.904;2022-12-29T02:13:28;9.10;99.90
8715;DHT22;4394;51.208;8.904;2022-12-29T02:16:25;9.10;99.90
8715;DHT22;4394;51.208;8.904;2022-12-29T02:19:27;9.10;99.90
8715;DHT22;4394;51.208;8.904;2022-12-29T02:22:25;9.20;99.90
8715;DHT22;4394;51.208;8.904;2022-12-29T02:25:20;9.20;99.90
8715;DHT22;4394;51.208;8.904;2022-12-29T02:28:28;9.20;99.90
8715;DHT22;4394;51.208;8.904;2022-12-29T02:31:23;9.20;99.90
8715;DHT22;4394;51.208;8.904;2022-12-29T02:34:17;9.20;99.90
8715;DHT22;4394;51.208;8.904;2022-12-29T02:37:10;9.20;99.90
8715;DHT22;4394;51.208;8.904;2022-12-29T02:40:03;9.20;99.90
8715;DHT22;4394;51.208;8.904;2022-12-29T02:42:55;9.20;99.90
8715;DHT22;4394;51.208;8.904;2022-12-29T02:45:47;9.20;99.90
8715;DHT22;4394;51.208;8.904;2022-12-29T02:48:41;9.20;99.90
8715;DHT22;4394;51.208;8.904;2022-12-29T02:51:31;9.20;99.90
8715;DHT22;4394;51.208;8.904;2022-12-29T02:54:20;9.30;99.90
8715;DHT22;4394;51.208;8.904;2022-12-29T02:57:30;9.30;99.90
8715;DHT22;4394;51.208;8.904;2022-12-29T03:00:17;9.30;99.90
8715;DHT22;4394;51.208;8.904;2022-12-29T03:03:12;9.30;99.90
8715;DHT22;4394;51.208;8.904;2022-12-29T03:06:09;9.30;99.90
8715;DHT22;4394;51.208;8.904;2022-12-29T03:09:03;9.30;99.90
8715;DHT22;4394;51.208;8.904;2022-12-29T03:12:07;9.30;99.90
8715;DHT22;4394;51.208;8.904;2022-12-29T03:15:02;9.40;99.90
8715;DHT22;4394;51.208;8.904;2022-12-29T03:18:10;9.40;99.90
8715;DHT22;4394;51.208;8.904;2022-12-29T03:21:00;9.40;99.90
8715;DHT22;4394;51.208;8.904;2022-12-29T03:23:51;9.40;99.90
8715;DHT22;4394;51.208;8.904;2022-12-29T03:26:39;9.30;99.90
8715;DHT22;4394;51.208;8.904;2022-12-29T03:29:29;9.50;99.90
8715;DHT22;4394;51.208;8.904;2022-12-29T03:32:20;9.40;99.90
8715;DHT22;4394;51.208;8.904;2022-12-29T03:35:09;9.50;99.90
8715;DHT22;4394;51.208;8.904;2022-12-29T03:38:00;9.40;99.90
8715;DHT22;4394;51.208;8.904;2022-12-29T03:40:55;9.50;99.90
8715;DHT22;4394;51.208;8.904;2022-12-29T03:43:44;9.50;99.90
8715;DHT22;4394;51.208;8.904;2022-12-29T03:46:32;9.50;99.90
8715;DHT22;4394;51.208;8.904;2022-12-29T03:49:20;9.50;99.90
8715;DHT22;4394;51.208;8.904;2022-12-29T03:52:08;9.50;99.90
8715;DHT22;4394;51.208;8.904;2022-12-29T03:54:56;9.60;99.90
8715;DHT22;4394;51.208;8.904;2022-12-29T03:57:45;9.60;99.90
8715;DHT22;4394;51.208;8.904;2022-12-29T04:00:33;9.60;99.90
8715;DHT22;4394;51.208;8.904;2022-12-29T04:03:21;9.60;99.90
8715;DHT22;4394;51.208;8.904;2022-12-29T04:06:09;9.60;99.90
8715;DHT22;4394;51.208;8.904;2022-12-29T04:08:56;9.60;99.90
8715;DHT22;4394;51.208;8.904;2022-12-29T04:11:44;9.60;99.90
8715;DHT22;4394;51.208;8.904;2022-12-29T04:14:34;9.60;99.90
8715;DHT22;4394;51.208;8.904;2022-12-29T04:17:21;9.60;99.90
8715;DHT22;4394;51.208;8.904;2022-12-29T04:20:09;9.60;99.90
8715;DHT22;4394;51.208;8.904;2022-12-29T04:23:15;9.60;99.90
8715;DHT22;4394;51.208;8.904;2022-12-29T04:26:04;9.60;99.90
8715;DHT22;4394;51.208;8.904;2022-12-29T04:28:53;9.50;99.90
8715;DHT22;4394;51.208;8.904;2022-12-29T04:31:42;9.50;99.90
8715;DHT22;4394;51.208;8.904;2022-12-29T04:34:30;9.50;99.90
8715;DHT22;4394;51.208;8.904;2022-12-29T04:37:18;9.60;99.90
8715;DHT22;4394;51.208;8.904;2022-12-29T04:40:06;9.60;99.90
8715;DHT22;4394;51.208;8.904;2022-12-29T04:42:54;9.60;99.90
8715;DHT22;4394;51.208;8.904;2022-12-29T04:45:42;9.60;99.90
8715;DHT22;4394;51.208;8.904;2022-12-29T04:48:31;9.60;99.90
8715;DHT22;4394;51.208;8.904;2022-12-29T04:51:20;9.60;99.90
8715;DHT22;4394;51.208;8.904;2022-12-29T04:54:08;9.60;99.90
8715;DHT22;4394;51.208;8.904;2022-12-29T04:56:55;9.60;99.90
8715;DHT22;4394;51.208;8.904;2022-12-29T04:59:43;9.50;99.90
8715;DHT22;4394;51.208;8.904;2022-12-29T05:02:31;9.50;99.90
8715;DHT22;4394;51.208;8.904;2022-12-29T05:05:21;9.60;99.90
8715;DHT22;4394;51.208;8.904;2022-12-29T05:08:08;9.50;99.90
8715;DHT22;4394;51.208;8.904;2022-12-29T05:10:57;9.50;99.90
8715;DHT22;4394;51.208;8.904;2022-12-29T05:13:45;9.60;99.90
8715;DHT22;4394;51.208;8.904;2022-12-29T05:16:33;9.60;99.90
8715;DHT22;4394;51.208;8.904;2022-12-29T05:19:21;9.50;99.90
8715;DHT22;4394;51.208;8.904;2022-12-29T05:22:10;9.50;99.90
8715;DHT22;4394;51.208;8.904;2022-12-29T05:24:58;9.50;99.90
8715;DHT22;4394;51.208;8.904;2022-12-29T05:27:46;9.60;99.90
8715;DHT22;4394;51.208;8.904;2022-12-29T05:30:33;9.60;99.90
8715;DHT22;4394;51.208;8.904;2022-12-29T05:33:21;9.50;99.90
8715;DHT22;4394;51.208;8.904;2022-12-29T05:36:09;9.50;99.90
8715;DHT22;4394;51.208;8.904;2022-12-29T05:38:59;9.50;99.90
8715;DHT22;4394;51.208;8.904;2022-12-29T05:41:46;9.60;99.90
8715;DHT22;4394;51.208;8.904;2022-12-29T05:44:36;9.50;99.90
8715;DHT22;4394;51.208;8.904;2022-12-29T05:47:24;9.60;99.90
8715;DHT22;4394;51.208;8.904;2022-12-29T05:50:12;9.60;99.90
8715;DHT22;4394;51.208;8.904;2022-12-29T05:53:00;9.60;99.90
8715;DHT22;4394;51.208;8.904;2022-12-29T05:55:49;9.60;99.90
8715;DHT22;4394;51.208;8.904;2022-12-29T05:58:37;9.60;99.90
8715;DHT22;4394;51.208;8.904;2022-12-29T06:01:25;9.60;99.90
8715;DHT22;4394;51.208;8.904;2022-12-29T06:04:13;9.60;99.90
8715;DHT22;4394;51.208;8.904;2022-12-29T06:07:00;9.60;99.90
8715;DHT22;4394;51.208;8.904;2022-12-29T06:09:48;9.60;99.90
8715;DHT22;4394;51.208;8.904;2022-12-29T06:12:38;9.60;99.90
8715;DHT22;4394;51.208;8.904;2022-12-29T06:15:25;9.70;99.90
8715;DHT22;4394;51.208;8.904;2022-12-29T06:18:13;9.70;99.90
8715;DHT22;4394;51.208;8.904;2022-12-29T06:21:06;9.70;99.90
8715;DHT22;4394;51.208;8.904;2022-12-29T06:23:54;9.70;99.90
8715;DHT22;4394;51.208;8.904;2022-12-29T06:26:42;9.70;99.90
8715;DHT22;4394;51.208;8.904;2022-12-29T06:29:32;9.70;99.90
8715;DHT22;4394;51.208;8.904;2022-12-29T06:32:22;9.70;99.90
8715;DHT22;4394;51.208;8.904;2022-12-29T06:35:10;9.70;99.90
8715;DHT22;4394;51.208;8.904;2022-12-29T06:37:58;9.70;99.90
8715;DHT22;4394;51.208;8.904;2022-12-29T06:40:46;9.80;99.90
8715;DHT22;4394;51.208;8.904;2022-12-29T06:43:34;9.70;99.90
8715;DHT22;4394;51.208;8.904;2022-12-29T06:46:26;9.80;99.90
8715;DHT22;4394;51.208;8.904;2022-12-29T06:49:14;9.80;99.90
8715;DHT22;4394;51.208;8.904;2022-12-29T06:52:03;9.80;99.90
8715;DHT22;4394;51.208;8.904;2022-12-29T06:54:58;9.80;99.90
8715;DHT22;4394;51.208;8.904;2022-12-29T06:57:46;9.80;99.90
8715;DHT22;4394;51.208;8.904;2022-12-29T07:00:34;9.80;99.90
8715;DHT22;4394;51.208;8.904;2022-12-29T07:03:23;9.80;99.90
8715;DHT22;4394;51.208;8.904;2022-12-29T07:06:12;9.80;99.90
8715;DHT22;4394;51.208;8.904;2022-12-29T07:09:00;9.80;99.90
8715;DHT22;4394;51.208;8.904;2022-12-29T07:11:48;9.80;99.90
8715;DHT22;4394;51.208;8.904;2022-12-29T07:14:36;9.80;99.90
8715;DHT22;4394;51.208;8.904;2022-12-29T07:17:32;9.70;99.90
8715;DHT22;4394;51.208;8.904;2022-12-29T07:20:21;9.80;99.90
8715;DHT22;4394;51.208;8.904;2022-12-29T07:23:12;9.80;99.90
8715;DHT22;4394;51.208;8.904;2022-12-29T07:26:01;9.80;99.90
8715;DHT22;4394;51.208;8.904;2022-12-29T07:28:49;9.80;99.90
8715;DHT22;4394;51.208;8.904;2022-12-29T07:31:37;9.80;99.90
8715;DHT22;4394;51.208;8.904;2022-12-29T07:34:25;9.80;99.90
8715;DHT22;4394;51.208;8.904;2022-12-29T07:37:15;9.80;99.90
8715;DHT22;4394;51.208;8.904;2022-12-29T07:40:04;9.80;99.90
8715;DHT22;4394;51.208;8.904;2022-12-29T07:42:52;9.80;99.90
8715;DHT22;4394;51.208;8.904;2022-12-29T07:45:40;9.70;99.90
8715;DHT22;4394;51.208;8.904;2022-12-29T07:48:28;9.70;99.90
8715;DHT22;4394;51.208;8.904;2022-12-29T07:51:16;9.70;99.90
8715;DHT22;4394;51.208;8.904;2022-12-29T07:54:05;9.80;99.90
8715;DHT22;4394;51.208;8.904;2022-12-29T07:56:53;9.80;99.90
8715;DHT22;4394;51.208;8.904;2022-12-29T07:59:41;9.80;99.90
8715;DHT22;4394;51.208;8.904;2022-12-29T08:02:29;9.80;99.90
8715;DHT22;4394;51.208;8.904;2022-12-29T08:05:17;9.80;99.90
8715;DHT22;4394;51.208;8.904;2022-12-29T08:08:05;9.70;99.90
8715;DHT22;4394;51.208;8.904;2022-12-29T08:10:56;9.70;99.90
8715;DHT22;4394;51.208;8.904;2022-12-29T08:13:44;9.70;99.90
8715;DHT22;4394;51.208;8.904;2022-12-29T08:16:32;9.60;99.90
8715;DHT22;4394;51.208;8.904;2022-12-29T08:19:20;9.50;99.90
8715;DHT22;4394;51.208;8.904;2022-12-29T08:22:09;9.40;99.90
8715;DHT22;4394;51.208;8.904;2022-12-29T08:24:57;9.30;99.90
8715;DHT22;4394;51.208;8.904;2022-12-29T08:27:47;9.10;99.90
8715;DHT22;4394;51.208;8.904;2022-12-29T08:30:35;9.00;99.90
8715;DHT22;4394;51.208;8.904;2022-12-29T08:33:24;9.00;99.90
8715;DHT22;4394;51.208;8.904;2022-12-29T08:36:12;8.90;99.90
8715;DHT22;4394;51.208;8.904;2022-12-29T08:39:00;9.00;99.90
8715;DHT22;4394;51.208;8.904;2022-12-29T08:41:48;9.00;99.90
8715;DHT22;4394;51.208;8.904;2022-12-29T08:44:37;8.90;99.90
8715;DHT22;4394;51.208;8.904;2022-12-29T08:47:25;9.00;99.90
8715;DHT22;4394;51.208;8.904;2022-12-29T08:50:13;9.00;99.90
8715;DHT22;4394;51.208;8.904;2022-12-29T08:53:01;9.00;99.90
8715;DHT22;4394;51.208;8.904;2022-12-29T08:55:54;9.00;99.90
8715;DHT22;4394;51.208;8.904;2022-12-29T08:58:50;9.10;99.90
8715;DHT22;4394;51.208;8.904;2022-12-29T09:01:39;9.10;99.90
8715;DHT22;4394;51.208;8.904;2022-12-29T09:04:27;9.20;99.90
8715;DHT22;4394;51.208;8.904;2022-12-29T09:07:15;9.20;99.90
8715;DHT22;4394;51.208;8.904;2022-12-29T09:10:03;9.30;99.90
8715;DHT22;4394;51.208;8.904;2022-12-29T09:12:51;9.30;99.90
8715;DHT22;4394;51.208;8.904;2022-12-29T09:15:40;9.40;99.90
8715;DHT22;4394;51.208;8.904;2022-12-29T09:18:29;9.50;99.90
8715;DHT22;4394;51.208;8.904;2022-12-29T09:21:17;9.50;99.90
8715;DHT22;4394;51.208;8.904;2022-12-29T09:24:05;9.50;99.90
8715;DHT22;4394;51.208;8.904;2022-12-29T09:26:53;9.60;99.90
8715;DHT22;4394;51.208;8.904;2022-12-29T09:29:41;9.70;99.90
8715;DHT22;4394;51.208;8.904;2022-12-29T09:32:29;9.70;99.90
8715;DHT22;4394;51.208;8.904;2022-12-29T09:35:21;9.70;99.90
8715;DHT22;4394;51.208;8.904;2022-12-29T09:38:09;9.80;99.90
8715;DHT22;4394;51.208;8.904;2022-12-29T09:40:59;9.80;99.90
8715;DHT22;4394;51.208;8.904;2022-12-29T09:43:55;9.90;99.90
8715;DHT22;4394;51.208;8.904;2022-12-29T09:46:47;10.00;99.90
8715;DHT22;4394;51.208;8.904;2022-12-29T09:49:39;10.00;99.90
8715;DHT22;4394;51.208;8.904;2022-12-29T09:52:31;10.10;99.90
8715;DHT22;4394;51.208;8.904;2022-12-29T09:55:20;10.10;99.90
8715;DHT22;4394;51.208;8.904;2022-12-29T09:58:10;10.10;99.90
8715;DHT22;4394;51.208;8.904;2022-12-29T10:01:01;10.10;99.90
8715;DHT22;4394;51.208;8.904;2022-12-29T10:03:51;10.20;99.90
8715;DHT22;4394;51.208;8.904;2022-12-29T10:06:42;10.20;99.90
8715;DHT22;4394;51.208;8.904;2022-12-29T10:09:56;10.10;99.90
8715;DHT22;4394;51.208;8.904;2022-12-29T10:12:51;10.00;99.90
8715;DHT22;4394;51.208;8.904;2022-12-29T10:15:45;10.10;99.90
8715;DHT22;4394;51.208;8.904;2022-12-29T10:21:43;10.10;99.90
8715;DHT22;4394;51.208;8.904;2022-12-29T10:24:37;10.00;99.90
8715;DHT22;4394;51.208;8.904;2022-12-29T10:27:26;10.00;99.90
8715;DHT22;4394;51.208;8.904;2022-12-29T10:30:15;9.90;99.90
8715;DHT22;4394;51.208;8.904;2022-12-29T10:33:04;9.90;99.90
8715;DHT22;4394;51.208;8.904;2022-12-29T10:35:53;9.90;99.90
8715;DHT22;4394;51.208;8.904;2022-12-29T10:38:43;9.90;99.90
8715;DHT22;4394;51.208;8.904;2022-12-29T10:41:36;9.90;99.90
8715;DHT22;4394;51.208;8.904;2022-12-29T10:44:27;9.80;99.90
8715;DHT22;4394;51.208;8.904;2022-12-29T10:47:17;9.80;99.90
8715;DHT22;4394;51.208;8.904;2022-12-29T10:50:07;9.70;99.90
8715;DHT22;4394;51.208;8.904;2022-12-29T10:52:55;9.80;99.90
8715;DHT22;4394;51.208;8.904;2022-12-29T10:55:43;9.80;99.90
8715;DHT22;4394;51.208;8.904;2022-12-29T10:58:32;9.80;99.90
8715;DHT22;4394;51.208;8.904;2022-12-29T11:01:21;9.80;99.90
8715;DHT22;4394;51.208;8.904;2022-12-29T11:04:16;9.80;99.90
8715;DHT22;4394;51.208;8.904;2022-12-29T11:07:10;9.80;99.90
8715;DHT22;4394;51.208;8.904;2022-12-29T11:13:10;9.80;99.90
8715;DHT22;4394;51.208;8.904;2022-12-29T11:15:58;9.80;99.90
8715;DHT22;4394;51.208;8.904;2022-12-29T11:18:48;9.80;99.90
8715;DHT22;4394;51.208;8.904;2022-12-29T11:21:38;9.80;99.90
8715;DHT22;4394;51.208;8.904;2022-12-29T11:24:27;9.80;99.90
8715;DHT22;4394;51.208;8.904;2022-12-29T11:27:16;9.80;99.90
8715;DHT22;4394;51.208;8.904;2022-12-29T11:30:21;9.70;99.90
8715;DHT22;4394;51.208;8.904;2022-12-29T11:33:16;9.80;99.90
8715;DHT22;4394;51.208;8.904;2022-12-29T11:36:07;9.80;99.90
8715;DHT22;4394;51.208;8.904;2022-12-29T11:38:55;9.80;99.90
8715;DHT22;4394;51.208;8.904;2022-12-29T11:41:45;9.90;99.90
8715;DHT22;4394;51.208;8.904;2022-12-29T11:44:42;9.90;99.90
8715;DHT22;4394;51.208;8.904;2022-12-29T11:47:30;9.80;99.90
8715;DHT22;4394;51.208;8.904;2022-12-29T11:50:20;9.70;99.90
8715;DHT22;4394;51.208;8.904;2022-12-29T11:53:15;9.70;99.90
8715;DHT22;4394;51.208;8.904;2022-12-29T11:56:05;9.70;99.90
8715;DHT22;4394;51.208;8.904;2022-12-29T11:58:53;9.70;99.90
8715;DHT22;4394;51.208;8.904;2022-12-29T12:01:41;9.70;99.90
8715;DHT22;4394;51.208;8.904;2022-12-29T12:04:30;9.70;99.90
8715;DHT22;4394;51.208;8.904;2022-12-29T12:07:22;9.70;99.90
8715;DHT22;4394;51.208;8.904;2022-12-29T12:10:16;9.70;99.90
8715;DHT22;4394;51.208;8.904;2022-12-29T12:13:12;9.70;99.90
8715;DHT22;4394;51.208;8.904;2022-12-29T12:16:05;9.70;99.90
8715;DHT22;4394;51.208;8.904;2022-12-29T12:18:55;9.80;99.90
8715;DHT22;4394;51.208;8.904;2022-12-29T12:21:51;9.80;99.90
8715;DHT22;4394;51.208;8.904;2022-12-29T12:24:45;9.80;99.90
8715;DHT22;4394;51.208;8.904;2022-12-29T12:27:39;9.70;99.90
8715;DHT22;4394;51.208;8.904;2022-12-29T12:30:30;9.70;99.90
8715;DHT22;4394;51.208;8.904;2022-12-29T12:33:22;9.70;99.90
8715;DHT22;4394;51.208;8.904;2022-12-29T12:36:15;9.70;99.90
8715;DHT22;4394;51.208;8.904;2022-12-29T12:39:06;9.80;99.90
8715;DHT22;4394;51.208;8.904;2022-12-29T12:41:59;9.80;99.90
8715;DHT22;4394;51.208;8.904;2022-12-29T12:44:53;9.80;99.90
8715;DHT22;4394;51.208;8.904;2022-12-29T12:47:49;9.80;99.90
8715;DHT22;4394;51.208;8.904;2022-12-29T12:50:42;9.80;99.90
8715;DHT22;4394;51.208;8.904;2022-12-29T12:53:40;9.80;99.90
8715;DHT22;4394;51.208;8.904;2022-12-29T12:59:39;9.90;99.90
8715;DHT22;4394;51.208;8.904;2022-12-29T13:02:34;9.90;99.90
8715;DHT22;4394;51.208;8.904;2022-12-29T13:05:30;9.90;99.90
8715;DHT22;4394;51.208;8.904;2022-12-29T13:08:23;9.90;99.90
8715;DHT22;4394;51.208;8.904;2022-12-29T13:11:17;9.90;99.90
8715;DHT22;4394;51.208;8.904;2022-12-29T13:14:11;9.90;99.90
8715;DHT22;4394;51.208;8.904;2022-12-29T13:17:02;10.00;99.90
8715;DHT22;4394;51.208;8.904;2022-12-29T13:19:55;9.90;99.90
8715;DHT22;4394;51.208;8.904;2022-12-29T13:22:45;9.90;99.90
8715;DHT22;4394;51.208;8.904;2022-12-29T13:25:37;9.90;99.90
8715;DHT22;4394;51.208;8.904;2022-12-29T13:28:28;9.90;99.90
8715;DHT22;4394;51.208;8.904;2022-12-29T13:31:18;9.90;99.90
8715;DHT22;4394;51.208;8.904;2022-12-29T13:34:11;9.80;99.90
8715;DHT22;4394;51.208;8.904;2022-12-29T13:37:03;9.70;99.90
8715;DHT22;4394;51.208;8.904;2022-12-29T13:39:52;9.80;99.90
8715;DHT22;4394;51.208;8.904;2022-12-29T13:42:42;9.70;99.90
8715;DHT22;4394;51.208;8.904;2022-12-29T13:45:31;9.70;99.90
8715;DHT22;4394;51.208;8.904;2022-12-29T13:48:21;9.70;99.90
8715;DHT22;4394;51.208;8.904;2022-12-29T13:51:09;9.70;99.90
8715;DHT22;4394;51.208;8.904;2022-12-29T13:54:05;9.70;99.90
8715;DHT22;4394;51.208;8.904;2022-12-29T13:56:59;9.60;99.90
8715;DHT22;4394;51.208;8.904;2022-12-29T13:59:50;9.70;99.90
8715;DHT22;4394;51.208;8.904;2022-12-29T14:02:42;9.70;99.90
8715;DHT22;4394;51.208;8.904;2022-12-29T14:05:34;9.70;99.90
8715;DHT22;4394;51.208;8.904;2022-12-29T14:08:22;9.70;99.90
8715;DHT22;4394;51.208;8.904;2022-12-29T14:11:11;9.70;99.90
8715;DHT22;4394;51.208;8.904;2022-12-29T14:14:10;9.80;99.90
8715;DHT22;4394;51.208;8.904;2022-12-29T14:17:08;9.80;99.90
8715;DHT22;4394;51.208;8.904;2022-12-29T14:20:01;9.70;99.90
8715;DHT22;4394;51.208;8.904;2022-12-29T14:22:57;9.80;99.90
8715;DHT22;4394;51.208;8.904;2022-12-29T14:25:53;9.80;99.90
8715;DHT22;4394;51.208;8.904;2022-12-29T14:28:43;9.70;99.90
8715;DHT22;4394;51.208;8.904;2022-12-29T14:31:33;9.60;99.90
8715;DHT22;4394;51.208;8.904;2022-12-29T14:34:28;9.70;99.90
8715;DHT22;4394;51.208;8.904;2022-12-29T14:37:23;9.60;99.90
8715;DHT22;4394;51.208;8.904;2022-12-29T14:40:14;9.60;99.90
8715;DHT22;4394;51.208;8.904;2022-12-29T14:43:06;9.50;99.90
8715;DHT22;4394;51.208;8.904;2022-12-29T14:46:00;9.50;99.90
8715;DHT22;4394;51.208;8.904;2022-12-29T14:48:52;9.50;99.90
8715;DHT22;4394;51.208;8.904;2022-12-29T14:51:42;9.40;99.90
8715;DHT22;4394;51.208;8.904;2022-12-29T14:54:47;9.40;99.90
8715;DHT22;4394;51.208;8.904;2022-12-29T14:57:37;9.40;99.90
8715;DHT22;4394;51.208;8.904;2022-12-29T15:00:27;9.40;99.90
8715;DHT22;4394;51.208;8.904;2022-12-29T15:03:20;9.30;99.90
8715;DHT22;4394;51.208;8.904;2022-12-29T15:06:09;9.40;99.90
8715;DHT22;4394;51.208;8.904;2022-12-29T15:09:00;9.30;99.90
8715;DHT22;4394;51.208;8.904;2022-12-29T15:11:50;9.30;99.90
8715;DHT22;4394;51.208;8.904;2022-12-29T15:14:39;9.30;99.90
8715;DHT22;4394;51.208;8.904;2022-12-29T15:17:35;9.30;99.90
8715;DHT22;4394;51.208;8.904;2022-12-29T15:20:27;9.30;99.90
8715;DHT22;4394;51.208;8.904;2022-12-29T15:23:15;9.20;99.90
8715;DHT22;4394;51.208;8.904;2022-12-29T15:26:04;9.20;99.90
8715;DHT22;4394;51.208;8.904;2022-12-29T15:28:53;9.30;99.90
8715;DHT22;4394;51.208;8.904;2022-12-29T15:31:46;9.20;99.90
8715;DHT22;4394;51.208;8.904;2022-12-29T15:34:35;9.20;99.90
8715;DHT22;4394;51.208;8.904;2022-12-29T15:37:25;9.20;99.90
8715;DHT22;4394;51.208;8.904;2022-12-29T15:40:20;9.20;99.90
8715;DHT22;4394;51.208;8.904;2022-12-29T15:43:16;9.20;99.90
8715;DHT22;4394;51.208;8.904;2022-12-29T15:46:10;9.20;99.90
8715;DHT22;4394;51.208;8.904;2022-12-29T15:48:58;9.30;99.90
8715;DHT22;4394;51.208;8.904;2022-12-29T15:51:46;9.30;99.90
8715;DHT22;4394;51.208;8.904;2022-12-29T15:54:36;9.30;99.90
8715;DHT22;4394;51.208;8.904;2022-12-29T15:57:25;9.30;99.90
8715;DHT22;4394;51.208;8.904;2022-12-29T16:00:23;9.30;99.90
8715;DHT22;4394;51.208;8.904;2022-12-29T16:03:12;9.20;99.90
8715;DHT22;4394;51.208;8.904;2022-12-29T16:06:07;9.20;99.90
8715;DHT22;4394;51.208;8.904;2022-12-29T16:08:55;9.20;99.90
8715;DHT22;4394;51.208;8.904;2022-12-29T16:11:45;9.10;99.90
8715;DHT22;4394;51.208;8.904;2022-12-29T16:14:34;9.20;99.90
8715;DHT22;4394;51.208;8.904;2022-12-29T16:17:26;9.20;99.90
8715;DHT22;4394;51.208;8.904;2022-12-29T16:20:16;9.10;99.90
8715;DHT22;4394;51.208;8.904;2022-12-29T16:23:04;9.20;99.90
8715;DHT22;4394;51.208;8.904;2022-12-29T16:25:52;9.20;99.90
8715;DHT22;4394;51.208;8.904;2022-12-29T16:28:43;9.20;99.90
8715;DHT22;4394;51.208;8.904;2022-12-29T16:31:33;9.10;99.90
8715;DHT22;4394;51.208;8.904;2022-12-29T16:34:23;9.10;99.90
8715;DHT22;4394;51.208;8.904;2022-12-29T16:37:24;9.10;99.90
8715;DHT22;4394;51.208;8.904;2022-12-29T16:40:23;9.10;99.90
8715;DHT22;4394;51.208;8.904;2022-12-29T16:43:18;9.00;99.90
8715;DHT22;4394;51.208;8.904;2022-12-29T16:46:18;9.10;99.90
8715;DHT22;4394;51.208;8.904;2022-12-29T16:49:10;9.00;99.90
8715;DHT22;4394;51.208;8.904;2022-12-29T16:52:12;8.90;99.90
8715;DHT22;4394;51.208;8.904;2022-12-29T16:55:00;8.90;99.90
8715;DHT22;4394;51.208;8.904;2022-12-29T16:57:50;8.90;99.90
8715;DHT22;4394;51.208;8.904;2022-12-29T17:00:40;8.80;99.90
8715;DHT22;4394;51.208;8.904;2022-12-29T17:03:32;8.80;99.90
8715;DHT22;4394;51.208;8.904;2022-12-29T17:06:22;8.80;99.90
8715;DHT22;4394;51.208;8.904;2022-12-29T17:09:17;8.80;99.90
8715;DHT22;4394;51.208;8.904;2022-12-29T17:12:05;8.80;99.90
8715;DHT22;4394;51.208;8.904;2022-12-29T17:14:57;8.80;99.90
8715;DHT22;4394;51.208;8.904;2022-12-29T17:17:45;8.80;99.90
8715;DHT22;4394;51.208;8.904;2022-12-29T17:20:35;8.70;99.90
8715;DHT22;4394;51.208;8.904;2022-12-29T17:23:23;8.70;99.90
8715;DHT22;4394;51.208;8.904;2022-12-29T17:26:12;8.70;99.90
8715;DHT22;4394;51.208;8.904;2022-12-29T17:29:00;8.60;99.90
8715;DHT22;4394;51.208;8.904;2022-12-29T17:31:48;8.60;99.90
8715;DHT22;4394;51.208;8.904;2022-12-29T17:34:36;8.60;99.90
8715;DHT22;4394;51.208;8.904;2022-12-29T17:37:29;8.50;99.90
8715;DHT22;4394;51.208;8.904;2022-12-29T17:40:18;8.60;99.90
8715;DHT22;4394;51.208;8.904;2022-12-29T17:43:07;8.70;99.90
8715;DHT22;4394;51.208;8.904;2022-12-29T17:45:58;8.70;99.90
8715;DHT22;4394;51.208;8.904;2022-12-29T17:48:46;8.60;99.90
8715;DHT22;4394;51.208;8.904;2022-12-29T17:51:39;8.60;99.90
8715;DHT22;4394;51.208;8.904;2022-12-29T17:54:30;8.60;99.90
8715;DHT22;4394;51.208;8.904;2022-12-29T17:57:18;8.60;99.90
8715;DHT22;4394;51.208;8.904;2022-12-29T18:00:08;8.50;99.90
8715;DHT22;4394;51.208;8.904;2022-12-29T18:03:01;8.50;99.90
8715;DHT22;4394;51.208;8.904;2022-12-29T18:05:50;8.50;99.90
8715;DHT22;4394;51.208;8.904;2022-12-29T18:08:38;8.50;99.90
8715;DHT22;4394;51.208;8.904;2022-12-29T18:11:27;8.50;99.90
8715;DHT22;4394;51.208;8.904;2022-12-29T18:14:16;8.50;99.90
8715;DHT22;4394;51.208;8.904;2022-12-29T18:17:07;8.40;99.90
8715;DHT22;4394;51.208;8.904;2022-12-29T18:19:55;8.40;99.90
8715;DHT22;4394;51.208;8.904;2022-12-29T18:22:43;8.40;99.90
8715;DHT22;4394;51.208;8.904;2022-12-29T18:25:35;8.40;99.90
8715;DHT22;4394;51.208;8.904;2022-12-29T18:28:27;8.40;99.90
8715;DHT22;4394;51.208;8.904;2022-12-29T18:31:16;8.40;99.90
8715;DHT22;4394;51.208;8.904;2022-12-29T18:34:11;8.40;99.90
8715;DHT22;4394;51.208;8.904;2022-12-29T18:36:59;8.40;99.90
8715;DHT22;4394;51.208;8.904;2022-12-29T18:39:50;8.40;99.90
8715;DHT22;4394;51.208;8.904;2022-12-29T18:42:39;8.40;99.90
8715;DHT22;4394;51.208;8.904;2022-12-29T18:45:30;8.40;99.90
8715;DHT22;4394;51.208;8.904;2022-12-29T18:48:19;8.40;99.90
8715;DHT22;4394;51.208;8.904;2022-12-29T18:51:10;8.40;99.90
8715;DHT22;4394;51.208;8.904;2022-12-29T18:54:01;8.40;99.90
8715;DHT22;4394;51.208;8.904;2022-12-29T18:56:49;8.40;99.90
8715;DHT22;4394;51.208;8.904;2022-12-29T18:59:36;8.40;99.90
8715;DHT22;4394;51.208;8.904;2022-12-29T19:02:26;8.40;99.90